sensor_id;sensor_type;location;lat;lon;timestamp;pressure;altitude;pressure_sealevel;temperature;humidity
56402;BME280;42299;35.160;26.100;2023-12-07T00:04:56;101072.41;;;15.48;100.00
56402;BME280;42299;35.160;26.100;2023-12-07T00:10:19;101069.72;;;15.49;100.00
56402;BME280;42299;35.160;26.100;2023-12-07T00:15:43;101075.09;;;15.63;100.00
56402;BME280;42299;35.160;26.100;2023-12-07T00:21:07;101066.22;;;15.69;100.00
56402;BME280;42299;35.160;26.100;2023-12-07T00:26:30;101067.13;;;15.65;100.00
56402;BME280;42299;35.160;26.100;2023-12-07T00:31:54;101061.81;;;15.56;100.00
56402;BME280;42299;35.160;26.100;2023-12-07T00:37:16;101057.38;;;15.58;100.00
56402;BME280;42299;35.160;26.100;2023-12-07T00:42:39;101047.56;;;15.38;100.00
56402;BME280;42299;35.160;26.100;2023-12-07T00:48:03;101043.09;;;15.18;100.00
56402;BME280;42299;35.160;26.100;2023-12-07T00:53:26;101054.66;;;15.30;100.00
56402;BME280;42299;35.160;26.100;2023-12-07T00:58:49;101048.44;;;15.24;100.00
56402;BME280;42299;35.160;26.100;2023-12-07T01:04:13;101044.91;;;15.22;100.00
56402;BME280;42299;35.160;26.100;2023-12-07T01:09:35;101020.97;;;15.22;100.00
56402;BME280;42299;35.160;26.100;2023-12-07T01:14:58;101031.59;;;15.12;100.00
56402;BME280;42299;35.160;26.100;2023-12-07T01:20:22;101034.22;;;14.99;100.00
56402;BME280;42299;35.160;26.100;2023-12-07T01:25:44;101028.91;;;14.88;100.00
56402;BME280;42299;35.160;26.100;2023-12-07T01:31:07;101032.41;;;14.75;100.00
56402;BME280;42299;35.160;26.100;2023-12-07T01:36:31;101020.03;;;14.88;100.00
56402;BME280;42299;35.160;26.100;2023-12-07T01:41:54;101007.63;;;15.03;100.00
56402;BME280;42299;35.160;26.100;2023-12-07T01:47:16;101008.50;;;14.87;100.00
56402;BME280;42299;35.160;26.100;2023-12-07T01:52:43;101002.28;;;14.79;100.00
56402;BME280;42299;35.160;26.100;2023-12-07T01:58:06;100999.59;;;14.71;100.00
56402;BME280;42299;35.160;26.100;2023-12-07T02:03:30;101007.53;;;14.58;100.00
56402;BME280;42299;35.160;26.100;2023-12-07T02:08:54;101009.28;;;14.53;100.00
56402;BME280;42299;35.160;26.100;2023-12-07T02:14:17;101006.66;;;14.50;100.00
56402;BME280;42299;35.160;26.100;2023-12-07T02:19:49;101008.44;;;14.70;100.00
56402;BME280;42299;35.160;26.100;2023-12-07T02:25:18;101007.63;;;14.87;100.00
56402;BME280;42299;35.160;26.100;2023-12-07T02:30:42;101013.88;;;15.08;100.00
56402;BME280;42299;35.160;26.100;2023-12-07T02:36:05;101012.09;;;15.13;100.00
56402;BME280;42299;35.160;26.100;2023-12-07T02:41:28;101012.09;;;15.20;100.00
56402;BME280;42299;35.160;26.100;2023-12-07T02:46:53;101013.88;;;15.16;100.00
56402;BME280;42299;35.160;26.100;2023-12-07T02:52:16;101020.97;;;15.14;100.00
56402;BME280;42299;35.160;26.100;2023-12-07T02:57:38;101040.47;;;15.24;100.00
56402;BME280;42299;35.160;26.100;2023-12-07T03:03:02;101036.94;;;15.32;100.00
56402;BME280;42299;35.160;26.100;2023-12-07T03:08:25;101025.41;;;15.41;100.00
56402;BME280;42299;35.160;26.100;2023-12-07T03:13:49;101024.53;;;15.66;100.00
56402;BME280;42299;35.160;26.100;2023-12-07T03:19:13;101015.66;;;15.57;100.00
56402;BME280;42299;35.160;26.100;2023-12-07T03:24:37;101008.53;;;15.43;100.00
56402;BME280;42299;35.160;26.100;2023-12-07T03:30:00;101013.88;;;15.48;100.00
56402;BME280;42299;35.160;26.100;2023-12-07T03:35:24;101023.63;;;15.46;100.00
56402;BME280;42299;35.160;26.100;2023-12-07T03:40:46;101010.34;;;15.57;100.00
56402;BME280;42299;35.160;26.100;2023-12-07T03:46:10;101007.69;;;15.67;100.00
56402;BME280;42299;35.160;26.100;2023-12-07T03:51:34;101005.03;;;15.75;100.00
56402;BME280;42299;35.160;26.100;2023-12-07T03:56:57;101012.09;;;15.76;100.00
56402;BME280;42299;35.160;26.100;2023-12-07T04:02:20;101012.09;;;15.85;100.00
56402;BME280;42299;35.160;26.100;2023-12-07T04:07:44;101028.94;;;15.94;100.00
56402;BME280;42299;35.160;26.100;2023-12-07T04:13:06;101042.25;;;15.84;100.00
56402;BME280;42299;35.160;26.100;2023-12-07T04:18:29;101045.84;;;15.81;100.00
56402;BME280;42299;35.160;26.100;2023-12-07T04:23:53;101051.09;;;15.97;100.00
56402;BME280;42299;35.160;26.100;2023-12-07T04:29:15;101055.53;;;16.02;100.00
56402;BME280;42299;35.160;26.100;2023-12-07T04:34:38;101052.91;;;15.93;100.00
56402;BME280;42299;35.160;26.100;2023-12-07T04:40:02;101059.13;;;15.87;100.00
56402;BME280;42299;35.160;26.100;2023-12-07T04:45:26;101064.44;;;15.83;100.00
56402;BME280;42299;35.160;26.100;2023-12-07T04:50:48;101068.91;;;15.61;100.00
56402;BME280;42299;35.160;26.100;2023-12-07T04:56:12;101070.69;;;15.68;100.00
56402;BME280;42299;35.160;26.100;2023-12-07T05:01:34;101054.69;;;15.64;100.00
56402;BME280;42299;35.160;26.100;2023-12-07T05:06:57;101070.66;;;15.59;100.00
56402;BME280;42299;35.160;26.100;2023-12-07T05:12:21;101059.16;;;15.54;100.00
56402;BME280;42299;35.160;26.100;2023-12-07T05:17:43;101052.03;;;15.62;100.00
56402;BME280;42299;35.160;26.100;2023-12-07T05:23:06;101054.69;;;15.65;100.00
56402;BME280;42299;35.160;26.100;2023-12-07T05:28:30;101068.00;;;15.83;100.00
56402;BME280;42299;35.160;26.100;2023-12-07T05:33:52;101068.84;;;16.02;100.00
56402;BME280;42299;35.160;26.100;2023-12-07T05:39:15;101078.63;;;16.02;100.00
56402;BME280;42299;35.160;26.100;2023-12-07T05:44:40;101073.31;;;16.00;100.00
56402;BME280;42299;35.160;26.100;2023-12-07T05:50:02;101075.94;;;16.20;100.00
56402;BME280;42299;35.160;26.100;2023-12-07T05:55:25;101082.97;;;16.47;100.00
56402;BME280;42299;35.160;26.100;2023-12-07T06:00:49;101074.03;;;16.55;100.00
56402;BME280;42299;35.160;26.100;2023-12-07T06:06:11;101071.34;;;16.72;100.00
56402;BME280;42299;35.160;26.100;2023-12-07T06:11:34;101061.59;;;16.65;100.00
56402;BME280;42299;35.160;26.100;2023-12-07T06:16:58;101083.84;;;16.53;100.00
56402;BME280;42299;35.160;26.100;2023-12-07T06:22:21;101081.13;;;16.58;100.00
56402;BME280;42299;35.160;26.100;2023-12-07T06:27:44;101072.13;;;16.91;100.00
56402;BME280;42299;35.160;26.100;2023-12-07T06:33:08;101075.44;;;17.31;100.00
56402;BME280;42299;35.160;26.100;2023-12-07T06:38:31;101088.47;;;17.75;100.00
56402;BME280;42299;35.160;26.100;2023-12-07T06:43:53;101079.06;;;18.26;100.00
56402;BME280;42299;35.160;26.100;2023-12-07T06:49:17;101083.50;;;18.28;100.00
56402;BME280;42299;35.160;26.100;2023-12-07T06:54:40;101087.06;;;18.30;100.00
56402;BME280;42299;35.160;26.100;2023-12-07T07:00:03;101082.59;;;18.29;100.00
56402;BME280;42299;35.160;26.100;2023-12-07T07:05:32;101096.00;;;18.26;100.00
56402;BME280;42299;35.160;26.100;2023-12-07T07:10:55;101092.75;;;18.78;100.00
56402;BME280;42299;35.160;26.100;2023-12-07T07:16:18;101101.19;;;19.73;100.00
56402;BME280;42299;35.160;26.100;2023-12-07T07:21:42;101090.63;;;21.04;94.13
56402;BME280;42299;35.160;26.100;2023-12-07T07:27:04;101093.88;;;21.58;88.47
56402;BME280;42299;35.160;26.100;2023-12-07T07:32:27;101095.16;;;21.42;92.55
56402;BME280;42299;35.160;26.100;2023-12-07T07:37:51;101102.75;;;21.23;94.54
56402;BME280;42299;35.160;26.100;2023-12-07T07:43:14;101096.97;;;21.41;91.77
56402;BME280;42299;35.160;26.100;2023-12-07T07:48:37;101107.34;;;21.20;91.73
56402;BME280;42299;35.160;26.100;2023-12-07T07:54:01;101115.13;;;21.67;92.08
56402;BME280;42299;35.160;26.100;2023-12-07T07:59:24;101118.06;;;25.06;62.25
56402;BME280;42299;35.160;26.100;2023-12-07T08:04:46;101109.47;;;23.94;60.68
56402;BME280;42299;35.160;26.100;2023-12-07T08:10:10;101109.53;;;22.46;70.45
56402;BME280;42299;35.160;26.100;2023-12-07T08:15:33;101102.88;;;22.26;70.78
56402;BME280;42299;35.160;26.100;2023-12-07T08:20:56;101090.97;;;22.37;69.28
56402;BME280;42299;35.160;26.100;2023-12-07T08:26:21;101089.75;;;22.79;65.27
56402;BME280;42299;35.160;26.100;2023-12-07T08:31:44;101086.38;;;23.59;57.69
56402;BME280;42299;35.160;26.100;2023-12-07T08:37:07;101091.63;;;23.90;56.29
56402;BME280;42299;35.160;26.100;2023-12-07T08:42:31;101088.16;;;23.87;54.17
56402;BME280;42299;35.160;26.100;2023-12-07T08:47:54;101088.50;;;24.53;52.21
56402;BME280;42299;35.160;26.100;2023-12-07T08:53:16;101079.28;;;25.29;47.50
56402;BME280;42299;35.160;26.100;2023-12-07T08:58:40;101067.28;;;25.59;46.73
56402;BME280;42299;35.160;26.100;2023-12-07T09:04:03;101058.91;;;26.28;45.84
56402;BME280;42299;35.160;26.100;2023-12-07T09:09:26;101044.28;;;28.50;40.70
56402;BME280;42299;35.160;26.100;2023-12-07T09:14:50;101056.63;;;28.40;39.77
56402;BME280;42299;35.160;26.100;2023-12-07T09:20:12;101043.25;;;26.93;42.56
56402;BME280;42299;35.160;26.100;2023-12-07T09:25:35;101035.22;;;25.92;45.40
56402;BME280;42299;35.160;26.100;2023-12-07T09:30:59;101035.66;;;25.16;47.85
56402;BME280;42299;35.160;26.100;2023-12-07T09:36:22;101031.94;;;24.26;51.04
56402;BME280;42299;35.160;26.100;2023-12-07T09:41:47;101026.09;;;23.34;60.13
56402;BME280;42299;35.160;26.100;2023-12-07T09:47:12;101013.91;;;22.94;66.62
56402;BME280;42299;35.160;26.100;2023-12-07T09:52:35;101000.41;;;22.36;76.43
56402;BME280;42299;35.160;26.100;2023-12-07T09:57:57;101003.09;;;22.36;81.93
56402;BME280;42299;35.160;26.100;2023-12-07T10:03:22;101001.94;;;25.26;64.08
56402;BME280;42299;35.160;26.100;2023-12-07T10:08:45;100973.03;;;25.70;55.26
56402;BME280;42299;35.160;26.100;2023-12-07T10:14:07;100984.31;;;26.41;52.74
56402;BME280;42299;35.160;26.100;2023-12-07T10:19:31;100974.81;;;27.07;47.88
56402;BME280;42299;35.160;26.100;2023-12-07T10:24:54;100963.72;;;28.82;42.22
56402;BME280;42299;35.160;26.100;2023-12-07T10:30:16;100964.47;;;28.20;42.90
56402;BME280;42299;35.160;26.100;2023-12-07T10:35:47;100967.72;;;26.67;45.92
56402;BME280;42299;35.160;26.100;2023-12-07T10:41:12;100962.16;;;24.85;51.11
56402;BME280;42299;35.160;26.100;2023-12-07T10:46:35;100945.28;;;23.85;56.90
56402;BME280;42299;35.160;26.100;2023-12-07T10:52:05;100944.22;;;23.38;62.14
56402;BME280;42299;35.160;26.100;2023-12-07T10:57:29;100933.69;;;23.30;62.46
56402;BME280;42299;35.160;26.100;2023-12-07T11:02:52;100933.00;;;22.97;65.07
56402;BME280;42299;35.160;26.100;2023-12-07T11:08:23;100940.25;;;23.23;65.39
56402;BME280;42299;35.160;26.100;2023-12-07T11:13:52;100932.06;;;22.98;69.52
56402;BME280;42299;35.160;26.100;2023-12-07T11:19:44;100943.78;;;23.24;71.07
56402;BME280;42299;35.160;26.100;2023-12-07T11:25:08;100932.38;;;24.65;62.88
56402;BME280;42299;35.160;26.100;2023-12-07T11:30:32;100915.63;;;24.78;58.77
56402;BME280;42299;35.160;26.100;2023-12-07T11:36:06;100899.97;;;24.19;60.07
56402;BME280;42299;35.160;26.100;2023-12-07T11:41:34;100897.63;;;23.86;62.03
56402;BME280;42299;35.160;26.100;2023-12-07T11:46:56;100891.06;;;23.93;59.64
56402;BME280;42299;35.160;26.100;2023-12-07T11:52:20;100878.50;;;23.92;60.64
56402;BME280;42299;35.160;26.100;2023-12-07T11:57:44;100888.78;;;24.05;59.69
56402;BME280;42299;35.160;26.100;2023-12-07T12:03:07;100874.56;;;23.52;59.95
56402;BME280;42299;35.160;26.100;2023-12-07T12:08:29;100862.66;;;23.33;61.40
56402;BME280;42299;35.160;26.100;2023-12-07T12:13:53;100866.44;;;23.27;61.07
56402;BME280;42299;35.160;26.100;2023-12-07T12:19:16;100867.53;;;22.97;60.84
56402;BME280;42299;35.160;26.100;2023-12-07T12:24:38;100855.66;;;22.47;63.04
56402;BME280;42299;35.160;26.100;2023-12-07T12:30:05;100843.78;;;22.54;63.54
56402;BME280;42299;35.160;26.100;2023-12-07T12:35:28;100858.97;;;22.27;61.63
56402;BME280;42299;35.160;26.100;2023-12-07T12:46:16;100851.84;;;22.26;61.61
56402;BME280;42299;35.160;26.100;2023-12-07T12:51:39;100865.16;;;22.31;60.29
56402;BME280;42299;35.160;26.100;2023-12-07T12:57:01;100851.94;;;22.23;59.87
56402;BME280;42299;35.160;26.100;2023-12-07T13:02:25;100859.91;;;21.97;61.71
56402;BME280;42299;35.160;26.100;2023-12-07T13:07:48;100848.28;;;21.96;61.63
56402;BME280;42299;35.160;26.100;2023-12-07T13:13:10;100855.78;;;22.14;60.24
56402;BME280;42299;35.160;26.100;2023-12-07T13:18:34;100849.41;;;22.18;60.46
56402;BME280;42299;35.160;26.100;2023-12-07T13:23:57;100846.31;;;21.70;63.60
56402;BME280;42299;35.160;26.100;2023-12-07T13:29:19;100851.59;;;21.42;68.11
56402;BME280;42299;35.160;26.100;2023-12-07T13:34:43;100850.53;;;21.48;69.36
56402;BME280;42299;35.160;26.100;2023-12-07T13:40:07;100874.91;;;21.40;70.65
56402;BME280;42299;35.160;26.100;2023-12-07T13:45:31;100885.34;;;21.53;70.02
56402;BME280;42299;35.160;26.100;2023-12-07T13:50:55;100884.75;;;21.41;71.43
56402;BME280;42299;35.160;26.100;2023-12-07T13:56:17;100894.44;;;21.13;74.51
56402;BME280;42299;35.160;26.100;2023-12-07T14:01:41;100886.97;;;21.26;74.14
56402;BME280;42299;35.160;26.100;2023-12-07T14:07:09;100890.81;;;21.16;76.14
56402;BME280;42299;35.160;26.100;2023-12-07T14:12:32;100887.19;;;21.17;78.69
56402;BME280;42299;35.160;26.100;2023-12-07T14:17:55;100876.28;;;20.87;85.00
56402;BME280;42299;35.160;26.100;2023-12-07T14:23:19;100881.28;;;20.27;95.58
56402;BME280;42299;35.160;26.100;2023-12-07T14:28:42;100879.22;;;20.40;97.72
56402;BME280;42299;35.160;26.100;2023-12-07T14:34:04;100867.78;;;20.30;98.14
56402;BME280;42299;35.160;26.100;2023-12-07T14:39:28;100880.03;;;20.02;100.00
56402;BME280;42299;35.160;26.100;2023-12-07T14:44:51;100898.91;;;19.96;99.44
56402;BME280;42299;35.160;26.100;2023-12-07T14:50:13;100890.94;;;19.48;100.00
56402;BME280;42299;35.160;26.100;2023-12-07T14:55:38;100886.22;;;19.11;100.00
56402;BME280;42299;35.160;26.100;2023-12-07T15:01:00;100888.78;;;19.18;100.00
56402;BME280;42299;35.160;26.100;2023-12-07T15:06:23;100891.78;;;18.99;96.91
56402;BME280;42299;35.160;26.100;2023-12-07T15:11:48;100889.41;;;18.81;91.17
56402;BME280;42299;35.160;26.100;2023-12-07T15:17:10;100912.22;;;19.03;85.17
56402;BME280;42299;35.160;26.100;2023-12-07T15:22:33;100926.53;;;19.02;84.28
56402;BME280;42299;35.160;26.100;2023-12-07T15:27:57;100933.69;;;19.00;82.28
56402;BME280;42299;35.160;26.100;2023-12-07T15:33:20;100924.19;;;18.81;85.87
56402;BME280;42299;35.160;26.100;2023-12-07T15:38:42;100923.69;;;18.52;91.06
56402;BME280;42299;35.160;26.100;2023-12-07T15:44:06;100932.16;;;18.20;96.90
56402;BME280;42299;35.160;26.100;2023-12-07T15:49:29;100928.69;;;18.12;99.82
56402;BME280;42299;35.160;26.100;2023-12-07T15:54:52;100938.63;;;18.01;100.00
56402;BME280;42299;35.160;26.100;2023-12-07T16:00:16;100953.91;;;17.91;100.00
56402;BME280;42299;35.160;26.100;2023-12-07T16:05:38;100960.16;;;17.87;100.00
56402;BME280;42299;35.160;26.100;2023-12-07T16:11:01;100959.25;;;17.86;100.00
56402;BME280;42299;35.160;26.100;2023-12-07T16:16:25;100961.97;;;17.85;100.00
56402;BME280;42299;35.160;26.100;2023-12-07T16:21:47;100962.88;;;17.82;100.00
56402;BME280;42299;35.160;26.100;2023-12-07T16:27:10;100964.69;;;17.80;100.00
56402;BME280;42299;35.160;26.100;2023-12-07T16:32:34;100977.88;;;17.97;100.00
56402;BME280;42299;35.160;26.100;2023-12-07T16:37:57;100983.88;;;18.16;100.00
56402;BME280;42299;35.160;26.100;2023-12-07T16:43:19;100980.31;;;18.17;100.00
56402;BME280;42299;35.160;26.100;2023-12-07T16:48:43;100986.63;;;18.08;100.00
56402;BME280;42299;35.160;26.100;2023-12-07T16:54:06;100991.22;;;17.97;100.00
56402;BME280;42299;35.160;26.100;2023-12-07T16:59:28;100984.91;;;18.04;100.00
56402;BME280;42299;35.160;26.100;2023-12-07T17:04:52;100974.88;;;18.24;100.00
56402;BME280;42299;35.160;26.100;2023-12-07T17:10:15;100972.78;;;18.48;100.00
56402;BME280;42299;35.160;26.100;2023-12-07T17:15:37;100974.19;;;18.06;100.00
56402;BME280;42299;35.160;26.100;2023-12-07T17:21:02;100978.09;;;17.77;100.00
56402;BME280;42299;35.160;26.100;2023-12-07T17:26:25;100981.50;;;17.90;100.00
56402;BME280;42299;35.160;26.100;2023-12-07T17:31:48;100979.66;;;17.97;100.00
56402;BME280;42299;35.160;26.100;2023-12-07T17:37:11;100989.38;;;18.02;100.00
56402;BME280;42299;35.160;26.100;2023-12-07T17:42:34;100991.81;;;18.20;100.00
56402;BME280;42299;35.160;26.100;2023-12-07T17:47:56;101005.19;;;18.19;100.00
56402;BME280;42299;35.160;26.100;2023-12-07T17:53:20;101014.72;;;17.59;100.00
56402;BME280;42299;35.160;26.100;2023-12-07T17:58:43;101023.28;;;16.86;100.00
56402;BME280;42299;35.160;26.100;2023-12-07T18:04:05;101010.84;;;16.85;100.00
56402;BME280;42299;35.160;26.100;2023-12-07T18:09:29;100997.47;;;16.92;100.00
56402;BME280;42299;35.160;26.100;2023-12-07T18:14:52;100990.31;;;16.94;100.00
56402;BME280;42299;35.160;26.100;2023-12-07T18:20:15;100986.84;;;16.86;100.00
56402;BME280;42299;35.160;26.100;2023-12-07T18:25:39;100978.91;;;16.72;100.00
56402;BME280;42299;35.160;26.100;2023-12-07T18:31:01;100974.56;;;16.49;100.00
56402;BME280;42299;35.160;26.100;2023-12-07T18:36:24;100982.69;;;16.20;100.00
56402;BME280;42299;35.160;26.100;2023-12-07T18:41:48;100962.31;;;16.08;100.00
56402;BME280;42299;35.160;26.100;2023-12-07T18:47:10;100972.94;;;16.08;100.00
56402;BME280;42299;35.160;26.100;2023-12-07T18:52:32;100969.34;;;16.21;100.00
56402;BME280;42299;35.160;26.100;2023-12-07T18:57:57;100972.78;;;16.48;100.00
56402;BME280;42299;35.160;26.100;2023-12-07T19:03:19;100953.19;;;16.59;100.00
56402;BME280;42299;35.160;26.100;2023-12-07T19:08:42;100942.47;;;16.73;100.00
56402;BME280;42299;35.160;26.100;2023-12-07T19:14:05;100931.69;;;16.90;100.00
56402;BME280;42299;35.160;26.100;2023-12-07T19:19:28;100935.91;;;17.20;100.00
56402;BME280;42299;35.160;26.100;2023-12-07T19:24:51;100946.34;;;17.45;100.00
56402;BME280;42299;35.160;26.100;2023-12-07T19:30:14;100949.84;;;17.50;100.00
56402;BME280;42299;35.160;26.100;2023-12-07T19:35:37;100951.47;;;17.67;100.00
56402;BME280;42299;35.160;26.100;2023-12-07T19:41:01;100960.31;;;17.73;100.00
56402;BME280;42299;35.160;26.100;2023-12-07T19:46:25;100972.81;;;17.70;100.00
56402;BME280;42299;35.160;26.100;2023-12-07T19:51:47;100973.63;;;17.76;100.00
56402;BME280;42299;35.160;26.100;2023-12-07T19:57:10;100970.91;;;17.81;100.00
56402;BME280;42299;35.160;26.100;2023-12-07T20:02:34;100970.97;;;17.75;100.00
56402;BME280;42299;35.160;26.100;2023-12-07T20:07:57;100982.53;;;17.78;100.00
56402;BME280;42299;35.160;26.100;2023-12-07T20:13:20;100975.47;;;17.71;100.00
56402;BME280;42299;35.160;26.100;2023-12-07T20:18:44;100961.41;;;17.51;100.00
56402;BME280;42299;35.160;26.100;2023-12-07T20:24:08;100960.72;;;17.28;100.00
56402;BME280;42299;35.160;26.100;2023-12-07T20:29:32;100957.34;;;17.06;100.00
56402;BME280;42299;35.160;26.100;2023-12-07T20:34:56;100947.56;;;17.06;100.00
56402;BME280;42299;35.160;26.100;2023-12-07T20:40:19;100944.22;;;16.74;100.00
56402;BME280;42299;35.160;26.100;2023-12-07T20:45:41;100946.13;;;16.48;100.00
56402;BME280;42299;35.160;26.100;2023-12-07T20:51:05;100939.94;;;16.44;100.00
56402;BME280;42299;35.160;26.100;2023-12-07T20:56:27;100930.19;;;16.42;100.00
56402;BME280;42299;35.160;26.100;2023-12-07T21:01:50;100932.75;;;16.55;100.00
56402;BME280;42299;35.160;26.100;2023-12-07T21:07:14;100939.72;;;16.82;100.00
56402;BME280;42299;35.160;26.100;2023-12-07T21:12:39;100928.91;;;17.05;100.00
56402;BME280;42299;35.160;26.100;2023-12-07T21:18:01;100925.31;;;17.07;100.00
56402;BME280;42299;35.160;26.100;2023-12-07T21:23:25;100919.03;;;17.14;100.00
56402;BME280;42299;35.160;26.100;2023-12-07T21:28:48;100929.50;;;17.34;100.00
56402;BME280;42299;35.160;26.100;2023-12-07T21:34:12;100927.66;;;17.42;100.00
56402;BME280;42299;35.160;26.100;2023-12-07T21:39:36;100921.63;;;17.21;100.00
56402;BME280;42299;35.160;26.100;2023-12-07T21:44:59;100908.41;;;17.08;100.00
56402;BME280;42299;35.160;26.100;2023-12-07T21:50:23;100910.22;;;17.06;100.00
56402;BME280;42299;35.160;26.100;2023-12-07T21:55:47;100919.00;;;17.16;100.00
56402;BME280;42299;35.160;26.100;2023-12-07T22:01:12;100915.19;;;17.44;100.00
56402;BME280;42299;35.160;26.100;2023-12-07T22:06:36;100903.47;;;17.64;100.00
56402;BME280;42299;35.160;26.100;2023-12-07T22:12:00;100885.16;;;17.26;100.00
56402;BME280;42299;35.160;26.100;2023-12-07T22:17:23;100866.69;;;17.01;100.00
56402;BME280;42299;35.160;26.100;2023-12-07T22:22:45;100874.66;;;17.04;100.00
56402;BME280;42299;35.160;26.100;2023-12-07T22:28:09;100869.13;;;17.26;100.00
56402;BME280;42299;35.160;26.100;2023-12-07T22:33:31;100859.16;;;17.44;100.00
56402;BME280;42299;35.160;26.100;2023-12-07T22:38:54;100845.81;;;17.44;100.00
56402;BME280;42299;35.160;26.100;2023-12-07T22:44:18;100851.22;;;17.35;100.00
56402;BME280;42299;35.160;26.100;2023-12-07T22:49:40;100837.88;;;17.35;100.00
56402;BME280;42299;35.160;26.100;2023-12-07T22:55:03;100837.94;;;17.32;100.00
56402;BME280;42299;35.160;26.100;2023-12-07T23:00:27;100844.09;;;17.37;100.00
56402;BME280;42299;35.160;26.100;2023-12-07T23:05:50;100859.97;;;17.51;100.00
56402;BME280;42299;35.160;26.100;2023-12-07T23:11:12;100857.31;;;17.46;100.00
56402;BME280;42299;35.160;26.100;2023-12-07T23:16:36;100871.75;;;17.27;100.00
56402;BME280;42299;35.160;26.100;2023-12-07T23:21:59;100867.44;;;17.17;100.00
56402;BME280;42299;35.160;26.100;2023-12-07T23:27:21;100879.06;;;17.11;100.00
56402;BME280;42299;35.160;26.100;2023-12-07T23:32:45;100868.38;;;17.13;100.00
56402;BME280;42299;35.160;26.100;2023-12-07T23:38:07;100882.75;;;16.95;100.00
56402;BME280;42299;35.160;26.100;2023-12-07T23:43:32;100884.78;;;16.58;100.00
56402;BME280;42299;35.160;26.100;2023-12-07T23:48:56;100892.81;;;16.54;100.00
56402;BME280;42299;35.160;26.100;2023-12-07T23:54:19;100883.88;;;16.65;100.00
56402;BME280;42299;35.160;26.100;2023-12-07T23:59:41;100883.88;;;16.64;100.00
